Date,TemperatureHighF,TemperatureAvgF,TemperatureLowF,DewpointHighF,DewpointAvgF,DewpointLowF,HumidityHigh,HumidityAvg,HumidityLow,PressureMaxIn,PressureMinIn,WindSpeedMaxMPH,WindSpeedAvgMPH,GustSpeedMaxMPH,PrecipitationSumIn
2013-4-18,48.8,44.5,36.6,29.1,23.7,19.7,57,44,32,30.35,30.17,15,7,22,0.01
2013-4-19,56.0,45.6,33.8,34.5,28.8,25.9,75,54,34,30.18,29.82,13,2,20,0.00
2013-4-20,60.4,46.5,34.3,41.9,35.3,31.1,92,67,37,29.94,29.83,15,2,28,0.06
2013-4-21,46.8,36.9,29.1,37.7,33.4,27.8,99,88,62,30.25,29.94,11,4,17,0.12
2013-4-22,33.7,26.3,11.1,27.7,21.0,6.1,95,81,61,30.58,30.26,7,3,13,0.36
2013-4-23,42.9,25.4,1.7,25.8,13.3,-2.0,93,64,34,30.57,30.31,5,1,8,0.02
2013-4-24,47.7,38.1,29.9,35.3,29.8,24.4,91,73,52,30.33,30.01,12,4,19,0.04
2013-4-25,68.0,53.0,34.6,36.6,26.2,16.3,75,40,14,30.00,29.81,13,3,20,0.00
2013-4-26,75.3,54.3,32.6,39.7,32.0,27.1,83,50,19,30.12,29.93,7,2,12,0.00
2013-4-27,79.3,60.9,39.5,38.2,31.5,21.4,74,39,12,30.04,29.72,16,2,17,0.00
2013-4-28,65.0,55.1,42.6,45.8,37.8,29.1,83,54,26,29.87,29.70,13,4,20,0.01
2013-4-29,70.0,48.8,36.6,45.0,37.6,30.4,93,70,25,29.73,29.42,16,3,25,0.29
2013-4-30,49.3,40.7,32.5,32.1,25.2,18.7,91,56,32,30.27,29.72,17,4,24,0.01
2013-5-1,50.6,37.9,30.1,29.7,23.4,12.0,90,61,22,30.68,30.28,9,2,13,0.00
2013-5-2,64.6,45.1,27.9,30.0,23.2,19.0,79,48,20,30.72,30.33,11,2,16,0.00
2013-5-3,68.0,49.8,28.2,36.9,29.3,22.0,88,52,19,30.32,30.08,9,2,16,0.00
2013-5-4,55.3,49.0,44.4,45.6,42.6,37.2,91,79,56,30.23,30.15,8,2,13,0.25
2013-5-5,66.1,50.6,32.3,44.3,35.5,30.5,95,62,28,30.24,30.02,13,2,19,0.01
2013-5-6,73.9,54.6,33.2,42.3,35.4,30.3,91,55,22,30.05,29.83,13,2,23,0.00
2013-5-7,81.1,60.2,37.0,42.2,36.8,30.7,85,49,18,29.85,29.72,12,2,20,0.00
2013-5-8,74.8,55.8,45.6,44.8,40.0,35.4,75,59,25,30.04,29.84,9,1,23,0.00
2013-5-9,76.9,57.2,38.1,46.6,40.2,29.6,90,59,19,30.08,29.98,12,2,18,0.00
2013-5-10,74.7,56.9,40.2,45.6,38.4,33.3,87,55,24,30.33,30.06,16,3,26,0.00
2013-5-11,75.4,54.5,31.5,45.8,36.2,27.8,88,56,24,30.35,30.05,10,2,12,0.00
2013-5-12,86.1,67.4,44.7,50.4,43.4,38.6,83,47,20,30.08,29.80,10,2,17,0.00
2013-5-13,93.1,74.1,55.0,53.2,43.4,32.3,73,38,12,29.85,29.53,13,2,16,0.00
2013-5-14,83.6,70.9,55.2,50.8,45.7,36.2,71,42,23,29.76,29.53,17,3,19,0.00
2013-5-15,81.2,62.2,42.4,49.5,41.8,36.8,82,51,24,29.87,29.68,7,1,14,0.00
2013-5-16,76.6,61.4,50.1,54.5,48.4,42.8,84,64,36,29.75,29.61,10,2,18,0.08
2013-5-17,63.2,56.4,51.3,54.7,52.1,49.6,95,86,71,29.79,29.64,8,2,22,0.27
2013-5-18,66.9,55.1,45.8,55.0,50.5,44.2,95,85,65,29.84,29.76,13,3,17,0.03
2013-5-19,55.3,52.6,50.5,51.0,49.7,48.5,93,90,83,29.91,29.78,18,7,27,0.33
2013-5-20,58.7,51.5,46.0,48.9,44.7,37.3,94,79,46,30.09,29.91,18,7,27,0.40
2013-5-21,65.8,55.4,46.5,43.3,40.1,34.1,88,59,32,30.08,29.88,14,5,20,0.00
2013-5-22,64.4,53.6,43.8,49.5,45.0,40.6,91,74,53,29.93,29.85,23,9,29,0.00
2013-5-23,70.4,59.5,49.9,50.9,47.6,44.1,82,66,48,29.88,29.54,40,22,51,0.00
2013-5-24,74.6,61.7,47.8,50.9,47.1,40.8,93,62,34,29.84,29.57,11,3,35,0.00
2013-5-25,78.9,61.8,42.1,55.7,47.0,39.1,91,62,36,29.84,29.62,16,3,23,0.00
2013-5-26,74.2,61.0,49.9,59.6,51.5,40.9,95,72,49,29.84,29.61,10,3,18,0.71
2013-5-27,68.8,56.8,47.0,54.3,48.6,38.1,96,76,37,29.81,29.63,20,3,36,0.15
2013-5-28,73.9,57.0,42.8,52.9,46.5,40.0,91,72,36,29.71,29.54,7,1,22,0.02
2013-5-29,58.5,54.2,50.7,54.5,51.1,48.4,94,89,81,29.64,29.50,13,3,16,0.59
2013-5-30,51.4,50.2,48.5,48.7,46.5,43.3,93,87,79,29.76,29.51,24,9,30,0.33
2013-5-31,54.5,50.2,47.2,45.3,42.9,40.7,89,77,65,30.16,29.72,24,12,37,0.15
2013-6-1,67.8,56.7,45.8,46.8,43.6,39.4,89,64,37,30.24,30.04,12,4,22,0.00
2013-6-2,77.2,61.2,41.4,55.8,48.5,38.7,92,66,37,30.04,29.50,14,3,18,0.00
2013-6-3,68.5,57.2,48.0,53.7,44.9,38.3,90,66,34,29.93,29.50,25,6,30,0.06
2013-6-4,55.3,48.3,38.8,42.1,39.1,35.6,90,71,55,30.28,29.93,15,4,21,0.00
2013-6-5,67.8,52.5,34.6,46.1,41.0,33.1,95,69,40,30.27,30.03,8,1,13,0.00
2013-6-6,78.3,60.2,39.0,53.4,45.6,37.1,94,64,30,30.03,29.93,10,1,12,0.00
2013-6-7,82.0,62.9,45.2,59.2,50.8,43.1,93,69,29,29.95,29.55,10,2,20,0.02
2013-6-8,75.3,65.4,53.6,55.6,48.8,45.0,91,58,35,29.82,29.61,13,4,26,0.07
2013-6-9,85.5,66.5,43.8,57.1,49.5,41.6,94,60,30,29.85,29.53,11,2,14,0.00
2013-6-10,79.9,68.2,56.1,57.4,53.1,47.8,85,60,39,29.73,29.56,13,3,17,0.00
2013-6-11,78.4,65.0,55.0,63.1,56.6,50.9,90,75,57,29.89,29.55,26,5,34,1.20
2013-6-12,75.5,63.3,54.0,60.8,56.5,51.4,94,80,56,29.97,29.83,13,4,20,0.33
2013-6-13,80.5,67.5,57.6,64.3,58.7,53.4,88,75,53,29.90,29.60,23,4,31,0.00
2013-6-14,69.8,61.2,49.4,53.6,46.8,41.1,84,60,40,29.98,29.72,22,4,35,0.00
2013-6-15,77.3,61.1,40.4,51.1,44.1,38.0,91,59,32,30.03,29.86,9,2,16,0.00
2013-6-16,81.5,64.6,45.2,55.8,47.5,38.9,90,59,25,30.01,29.90,6,1,10,0.00
2013-6-17,81.4,66.4,49.9,59.5,53.9,47.7,93,67,40,30.02,29.88,8,1,13,0.00
2013-6-18,82.0,68.5,51.6,58.8,50.2,36.0,90,55,22,29.89,29.59,23,5,35,0.00
2013-6-19,91.7,75.4,57.2,58.3,48.9,30.6,76,43,15,29.59,29.23,25,7,32,0.00
2013-6-20,82.0,65.6,49.8,49.4,45.4,42.2,79,50,25,29.84,29.46,18,5,23,0.00
2013-6-21,74.9,62.7,54.8,56.5,49.9,45.0,80,64,46,29.89,29.81,7,2,11,0.00
2013-6-22,61.8,55.9,49.1,55.5,51.7,46.6,94,86,68,29.95,29.77,12,2,16,0.30
2013-6-23,77.0,61.6,42.2,54.8,48.0,40.3,95,66,37,29.93,29.66,10,2,18,0.01
2013-6-24,86.6,68.9,49.8,62.0,52.8,45.7,93,61,30,29.66,29.42,20,2,28,0.00
2013-6-25,83.6,71.9,60.9,58.4,52.2,47.5,79,52,31,29.68,29.41,17,2,27,0.00
2013-6-26,84.1,70.4,56.0,59.4,54.8,49.0,85,61,36,29.93,29.68,7,1,9,0.00
2013-6-27,87.5,71.8,53.5,61.1,55.9,50.6,90,62,33,30.05,29.93,7,1,12,0.00
2013-6-28,89.0,72.8,54.3,61.7,55.9,52.0,93,61,30,30.10,29.97,9,1,13,0.00
2013-6-29,88.9,73.0,54.0,62.5,56.6,51.1,91,61,32,30.05,29.88,12,2,15,0.00
2013-6-30,89.4,75.2,60.4,59.4,56.0,53.6,83,54,30,29.98,29.88,13,2,19,0.00
2013-7-1,90.3,73.5,54.9,60.9,55.5,51.2,91,58,27,30.03,29.95,8,2,18,0.00
2013-7-2,91.7,73.6,54.5,59.6,53.4,46.0,91,56,22,30.01,29.82,8,1,11,0.00
2013-7-3,92.9,75.4,52.2,61.8,55.0,49.3,90,54,25,29.81,29.67,12,2,23,0.00
2013-7-4,88.8,72.6,57.7,64.8,59.3,52.9,85,65,39,29.80,29.57,12,2,17,0.05
2013-7-5,80.4,69.3,58.4,63.3,59.6,54.7,90,72,51,29.74,29.56,13,2,20,0.02
2013-7-6,86.3,67.0,55.8,61.6,58.3,54.1,94,76,40,29.81,29.63,12,2,16,0.29
2013-7-7,88.7,70.9,59.2,62.1,58.0,53.1,90,66,35,29.86,29.66,16,2,30,0.00
2013-7-8,91.7,72.7,61.0,61.2,54.8,44.3,79,56,23,29.84,29.66,13,3,23,0.00
2013-7-9,84.0,70.2,53.8,59.5,54.8,50.7,91,62,34,30.01,29.84,8,1,13,0.00
2013-7-10,93.1,75.4,55.3,60.3,54.9,45.6,87,54,21,30.00,29.74,7,1,13,0.00
2013-7-11,94.9,78.5,58.1,67.9,55.4,47.1,78,48,22,29.76,29.46,11,2,17,0.00
2013-7-12,82.8,74.1,65.7,63.1,55.8,50.7,79,54,36,29.73,29.60,20,4,22,0.00
2013-7-13,95.9,73.8,54.0,58.4,52.0,37.1,87,53,13,30.01,29.69,16,3,24,0.00
2013-7-14,84.4,72.4,57.6,58.2,53.6,48.2,81,53,35,30.05,29.87,19,5,26,0.00
2013-7-15,95.6,78.3,61.9,63.3,58.0,50.3,84,54,23,29.86,29.66,14,2,22,0.00
2013-7-16,76.5,67.8,61.0,58.9,55.8,53.0,83,66,51,30.07,29.69,22,3,23,0.00
2013-7-17,93.3,74.8,56.2,66.0,59.2,53.2,90,62,27,30.05,29.80,7,1,16,0.00
2013-7-18,91.1,79.0,65.9,63.2,56.8,52.1,78,49,27,29.89,29.79,7,2,15,0.00
2013-7-19,94.6,76.4,56.9,57.7,52.9,46.0,87,50,20,29.93,29.70,9,1,18,0.00
2013-7-20,92.2,74.0,55.9,56.5,50.5,45.7,81,49,21,29.80,29.64,6,1,11,0.00
2013-7-21,93.2,75.4,53.9,56.4,48.0,37.2,84,44,17,29.74,29.59,10,1,16,0.00
2013-7-22,96.7,76.0,55.2,57.0,49.8,43.7,82,45,18,29.76,29.58,18,3,27,0.00
2013-7-23,91.4,74.0,56.2,57.7,49.6,41.3,82,48,18,29.93,29.72,10,2,14,0.00
2013-7-24,91.3,74.7,54.7,57.0,52.7,48.9,86,51,25,29.97,29.72,17,3,21,0.00
2013-7-25,83.2,72.5,60.4,58.3,53.9,49.3,80,54,34,30.02,29.72,8,2,14,0.00
2013-7-26,86.7,70.4,54.8,56.9,54.0,51.3,89,59,32,30.07,29.91,11,2,17,0.00
2013-7-27,88.0,72.6,58.3,59.0,53.6,47.1,84,55,28,29.93,29.66,11,2,18,0.00
2013-7-28,85.4,71.2,58.9,57.2,52.8,49.4,78,54,30,29.74,29.62,12,2,19,0.00
2013-7-29,77.5,65.4,53.3,57.4,54.9,51.0,93,71,47,29.94,29.72,8,2,15,0.00
2013-7-30,82.9,67.1,54.6,60.8,55.5,51.3,89,68,38,30.13,29.87,15,2,22,0.08
2013-7-31,88.8,68.9,50.7,58.6,52.8,45.5,95,63,24,30.15,29.93,6,1,12,0.00
2013-8-1,90.6,75.5,63.6,60.3,54.2,48.6,75,51,26,29.95,29.59,13,3,22,0.02
2013-8-2,82.3,70.0,57.5,61.0,55.9,53.3,87,63,38,29.88,29.66,12,2,15,0.00
2013-8-3,85.5,71.0,56.2,63.2,58.7,53.5,91,68,39,29.97,29.73,18,3,25,0.00
2013-8-4,84.6,72.2,58.9,61.0,57.9,53.5,89,63,37,29.91,29.79,14,2,16,0.00
2013-8-5,91.8,73.4,55.9,59.5,52.2,41.0,89,54,21,29.87,29.64,12,2,20,0.02
2013-8-6,83.8,69.3,55.6,54.1,47.7,40.9,78,51,23,29.91,29.70,7,2,20,0.00
2013-8-7,89.6,71.2,50.6,51.3,46.9,41.9,82,48,20,29.93,29.72,10,2,16,0.00
2013-8-8,84.7,68.4,52.5,55.9,50.9,47.5,84,57,30,29.90,29.81,15,1,19,0.00
2013-8-9,78.0,67.5,59.3,59.3,54.0,50.3,78,63,40,30.01,29.90,12,2,21,0.01
2013-8-10,83.2,67.2,51.5,57.7,50.9,43.1,88,60,30,29.98,29.85,10,1,21,0.00
2013-8-11,89.4,71.0,52.5,49.9,43.9,29.4,76,43,14,29.98,29.83,12,2,19,0.00
2013-8-12,87.0,68.7,48.7,53.3,44.3,34.1,79,46,16,29.94,29.86,6,1,8,0.00
2013-8-13,83.3,70.6,55.5,53.6,46.4,35.9,72,44,20,30.02,29.90,19,3,29,0.00
2013-8-14,83.8,67.4,50.6,51.0,45.0,36.0,75,48,19,29.97,29.84,5,1,12,0.00
2013-8-15,90.6,69.9,50.0,48.8,42.8,23.9,79,45,9,29.96,29.84,7,1,11,0.00
2013-8-16,96.4,74.3,49.1,49.6,37.7,16.8,79,38,6,29.90,29.76,15,3,22,0.00
2013-8-17,92.4,75.4,54.2,53.9,40.8,30.1,62,33,11,29.78,29.72,9,2,16,0.00
2013-8-18,87.9,71.2,56.5,55.0,49.4,45.0,75,50,24,29.87,29.75,12,1,20,0.00
2013-8-19,94.3,73.8,53.8,55.6,45.3,33.3,78,44,12,29.86,29.69,6,1,10,0.00
2013-8-20,92.1,74.2,57.0,52.0,41.2,23.5,70,37,9,29.80,29.69,12,1,13,0.00
2013-8-21,87.4,72.3,54.5,48.5,44.2,38.0,74,40,18,29.93,29.74,15,2,19,0.00
2013-8-22,88.4,74.4,62.3,58.1,53.7,48.4,79,51,26,29.94,29.73,16,3,23,0.01
2013-8-23,93.4,75.9,57.2,61.5,51.1,38.9,81,47,16,29.73,29.55,12,1,18,0.03
2013-8-24,87.6,73.1,62.6,58.4,52.6,44.7,77,52,24,29.77,29.64,7,1,11,0.00
2013-8-25,92.0,71.8,59.1,54.7,48.8,33.9,75,50,13,29.87,29.75,6,1,8,0.00
2013-8-26,93.7,77.2,62.6,55.8,46.7,33.9,68,38,13,29.80,29.72,11,1,15,0.00
2013-8-27,91.5,77.5,63.5,56.7,47.8,38.1,62,38,16,29.82,29.73,8,1,13,0.00
2013-8-28,99.8,78.3,60.0,56.9,51.0,37.8,77,43,13,29.80,29.66,10,1,19,0.00
2013-8-29,94.3,75.3,58.5,54.9,47.6,31.7,71,43,11,29.94,29.79,17,2,36,0.00
2013-8-30,97.8,74.9,59.3,54.5,46.8,28.1,69,43,9,29.90,29.74,20,1,39,0.00
2013-8-31,83.9,70.8,55.5,49.7,42.3,36.0,70,38,19,29.96,29.75,18,2,22,0.00
2013-9-1,92.8,67.5,45.9,45.5,39.5,21.7,81,45,8,30.01,29.84,6,1,11,0.00
2013-9-2,91.6,71.5,48.7,52.7,45.0,38.6,79,44,16,29.88,29.70,13,1,18,0.00
2013-9-3,90.8,74.6,58.9,57.8,51.6,45.8,74,49,22,29.85,29.76,5,1,10,0.00
2013-9-4,93.3,76.5,60.2,55.9,51.5,45.6,74,46,20,29.93,29.82,10,1,16,0.00
2013-9-5,96.1,76.1,59.3,57.2,53.4,47.9,79,50,20,29.90,29.69,7,1,14,0.00
2013-9-6,92.4,76.4,65.3,63.2,54.3,42.9,70,49,20,29.87,29.73,9,2,26,0.10
2013-9-7,90.4,74.2,60.4,61.1,54.5,46.7,84,55,23,29.86,29.74,11,1,32,0.34
2013-9-8,80.8,67.1,60.4,62.8,57.8,52.8,85,73,43,29.84,29.66,7,1,16,0.21
2013-9-9,76.3,64.3,53.3,53.7,47.0,39.3,83,57,27,29.92,29.72,7,2,16,0.00
2013-9-10,78.3,62.4,50.1,50.9,46.5,38.7,83,60,25,30.03,29.93,4,0,6,0.00
2013-9-11,83.2,64.0,46.7,50.1,44.7,35.7,85,56,19,30.17,30.04,5,1,10,0.00
2013-9-12,80.2,65.3,49.6,51.0,47.1,42.0,84,55,26,30.19,29.97,23,6,33,0.00
2013-9-13,79.5,66.2,56.2,60.5,53.3,47.6,87,65,41,29.96,29.67,15,3,24,0.27
2013-9-14,69.2,60.6,52.4,58.6,55.4,48.6,89,83,63,30.00,29.70,10,2,17,1.00
2013-9-15,71.7,64.1,58.5,58.4,53.7,48.8,89,70,47,30.09,29.93,21,8,31,0.12
2013-9-16,84.2,64.9,48.4,56.1,50.1,44.5,88,63,27,29.92,29.68,17,1,24,0.00
2013-9-17,87.4,65.5,52.5,58.8,49.1,36.4,84,62,17,29.71,29.52,14,2,21,0.09
2013-9-18,75.5,59.6,46.4,55.0,46.6,32.4,83,65,22,29.88,29.48,13,3,24,0.14
2013-9-19,62.2,50.7,42.9,40.2,38.3,35.2,85,64,38,30.14,29.89,10,2,15,0.00
2013-9-20,75.4,53.8,35.6,44.1,35.5,22.3,87,58,15,30.14,29.78,12,2,17,0.00
2013-9-21,86.5,61.1,37.5,48.1,31.6,10.8,84,46,6,29.78,29.49,15,2,19,0.00
2013-9-22,70.4,58.3,47.0,52.6,42.5,36.5,76,57,32,29.51,29.41,6,1,12,0.00
2013-9-23,69.9,58.3,44.2,47.4,38.9,26.4,82,54,20,29.86,29.51,11,2,18,0.14
2013-9-24,80.4,57.1,37.3,42.8,34.4,16.0,85,51,9,29.95,29.55,13,2,20,0.00
2013-9-25,61.0,52.8,45.4,45.5,40.2,35.5,86,64,39,29.65,29.47,11,2,15,0.35
2013-9-26,49.3,44.9,39.5,42.5,38.6,34.8,88,79,61,30.04,29.64,11,2,19,0.52
2013-9-27,44.0,38.6,33.2,37.9,34.0,29.5,92,84,75,30.04,29.99,4,0,7,0.44
2013-9-28,66.8,49.0,31.7,40.9,32.1,26.8,87,58,23,30.02,29.87,11,2,19,0.01
2013-9-29,70.8,58.0,44.2,46.0,35.1,28.4,71,44,21,29.86,29.58,15,2,18,0.00
2013-9-30,75.5,53.0,39.0,46.8,38.0,34.3,84,61,25,29.83,29.47,13,3,27,0.00
2013-10-1,69.7,51.5,37.0,40.4,35.5,30.1,82,59,27,29.95,29.80,18,3,31,0.00
2013-10-2,59.3,49.7,38.4,41.2,34.8,28.5,81,59,37,30.08,29.87,15,2,20,0.42
2013-10-3,44.3,40.5,33.8,39.9,36.1,30.3,87,84,80,30.27,29.88,14,5,20,0.68
2013-10-4,36.0,33.7,31.7,30.5,29.0,27.1,88,83,70,30.51,30.26,3,0,9,0.26
2013-10-5,48.2,35.1,19.7,30.0,24.8,15.1,83,68,40,30.46,30.31,13,1,13,0.38
2013-10-6,62.6,45.5,31.9,39.9,32.3,27.6,84,63,30,30.31,30.09,5,1,6,0.00
2013-10-7,64.4,45.0,28.2,44.5,34.6,23.9,85,69,42,30.09,29.72,3,0,7,0.00
2013-10-8,62.9,52.3,40.3,40.0,35.3,27.1,79,55,29,29.93,29.68,14,3,18,0.00
2013-10-9,59.4,49.3,40.4,38.5,36.3,30.1,82,62,34,30.03,29.87,15,3,20,0.00
2013-10-10,54.0,44.1,33.2,41.2,36.0,29.3,87,74,57,29.86,29.68,10,2,13,0.00
2013-10-11,50.1,43.8,31.5,41.0,33.4,25.8,84,67,46,30.08,29.72,22,6,30,0.05
2013-10-12,55.0,39.4,25.7,35.7,27.1,21.0,83,65,31,30.21,30.08,16,2,23,0.00
2013-10-13,48.3,40.0,30.9,38.2,33.2,26.1,90,77,64,30.21,30.12,9,1,12,0.04
2013-10-14,40.8,36.1,34.1,36.6,32.0,30.5,87,85,77,30.44,30.12,16,6,21,0.62
2013-10-15,48.6,38.7,25.6,27.7,23.9,20.0,82,58,35,30.40,30.21,5,1,15,0.00
2013-10-16,56.0,38.1,20.4,34.3,22.5,10.1,83,60,18,30.22,30.10,14,3,21,0.01
2013-10-17,44.7,37.9,33.8,32.2,29.7,25.3,84,73,49,30.26,30.16,12,2,17,0.02
2013-10-18,50.4,41.2,34.1,31.2,26.9,20.7,85,59,31,30.29,30.04,15,4,21,0.03
2013-10-19,61.6,46.3,29.3,38.1,27.1,22.4,80,52,23,30.04,29.90,19,3,24,0.01
2013-10-20,45.5,42.5,36.7,38.3,35.0,31.8,85,75,62,30.14,29.99,14,3,20,0.23
2013-10-21,58.1,49.4,38.3,36.4,34.0,30.5,85,58,36,30.12,30.06,12,3,19,0.00
2013-10-22,64.0,50.2,36.5,38.9,34.7,31.4,83,58,34,30.12,30.03,7,1,13,0.00
2013-10-23,59.5,45.7,33.2,38.9,34.6,28.2,82,67,41,30.30,30.10,13,1,16,0.00
2013-10-24,59.5,42.8,30.6,40.6,34.1,26.9,87,73,43,30.32,30.19,6,1,11,0.00
2013-10-25,66.8,44.9,28.2,41.8,30.7,24.6,86,63,22,30.35,30.17,14,2,20,0.00
2013-10-26,69.9,44.4,27.8,38.1,28.6,20.9,84,61,16,30.34,30.04,5,0,7,0.00
2013-10-27,62.4,44.8,29.5,36.6,28.0,23.3,80,57,23,30.09,29.86,9,1,14,0.00
2013-10-28,40.0,34.1,31.2,32.0,28.1,24.8,84,78,71,30.22,30.09,19,8,29,0.06
2013-10-29,35.1,32.3,29.7,28.0,25.2,22.7,81,75,68,30.21,30.03,15,3,24,0.00
2013-10-30,49.9,34.3,25.1,35.4,27.3,20.7,88,76,46,30.02,29.89,6,1,8,0.00
2013-10-31,53.5,40.2,25.7,35.2,27.7,20.4,82,63,41,30.00,29.80,18,3,25,0.01
2013-11-1,51.8,42.5,28.5,31.9,24.9,18.3,76,52,27,30.19,30.01,19,4,24,0.01
2013-11-2,55.5,36.0,23.2,31.2,25.1,18.2,82,67,35,30.19,29.66,7,1,8,0.00
2013-11-3,42.3,37.4,30.0,34.2,25.9,16.0,85,64,41,29.99,29.64,12,2,24,0.06
2013-11-4,39.8,31.3,23.8,26.8,22.2,17.4,83,70,51,30.24,29.99,8,1,13,0.00
2013-11-5,41.0,29.4,19.4,23.8,17.0,10.9,82,63,30,30.30,30.18,13,2,17,0.00
2013-11-6,47.3,33.9,21.0,27.8,22.7,14.2,82,65,34,30.46,30.22,15,2,26,0.00
2013-11-7,53.4,38.2,26.3,29.2,25.4,21.3,82,63,31,30.46,29.77,18,3,23,0.00
2013-11-8,54.8,43.6,33.8,33.1,23.7,13.5,80,49,21,30.08,29.68,20,5,30,0.02
2013-11-9,48.5,37.8,26.1,27.9,23.5,18.1,77,58,31,30.31,30.08,6,1,8,0.00
2013-11-10,51.1,36.5,25.0,31.7,26.1,19.1,84,68,39,30.38,30.19,6,1,9,0.00
2013-11-11,32.6,30.7,27.9,28.6,26.4,23.8,87,84,80,30.71,30.38,7,2,11,0.00
2013-11-12,55.2,34.2,20.2,39.6,27.9,16.4,88,79,55,30.68,30.32,5,0,6,0.01
2013-11-13,58.3,43.3,29.9,35.6,30.7,25.1,84,63,35,30.33,30.10,14,1,24,0.00
2013-11-14,49.5,35.9,26.5,27.5,22.9,19.4,79,61,32,30.18,29.81,6,1,11,0.00
2013-11-15,48.4,32.1,20.0,28.0,21.5,15.3,82,67,38,29.82,29.50,7,1,14,0.00
2013-11-16,47.8,35.2,24.8,28.9,23.5,18.9,84,64,32,29.58,29.33,14,2,20,0.00
2013-11-17,45.6,32.4,19.9,28.0,16.9,8.5,84,57,22,30.14,29.57,16,2,24,0.01
2013-11-18,54.4,33.4,19.1,27.0,20.9,13.1,79,63,31,30.13,29.89,6,1,7,0.00
2013-11-19,59.0,41.1,31.0,31.6,26.5,22.7,77,59,28,29.90,29.65,6,1,11,0.00
2013-11-20,32.1,20.9,11.0,24.2,14.7,4.6,84,77,68,30.62,29.74,20,3,24,0.00
2013-11-21,21.2,10.3,-2.0,8.7,2.7,-7.7,84,71,58,30.85,30.61,4,0,5,0.01
2013-11-22,36.5,15.4,-1.7,12.6,2.9,-8.0,77,61,26,30.97,30.79,7,1,10,0.01
2013-11-23,42.8,21.3,8.6,18.9,10.6,2.9,80,65,37,30.91,30.45,7,0,8,0.00
2013-11-24,53.9,29.7,10.1,22.7,14.9,4.9,81,58,18,30.44,30.21,7,1,11,0.00
2013-11-25,40.7,30.1,21.1,23.6,19.6,15.1,81,66,44,30.52,30.31,8,1,12,0.00
2013-11-26,44.3,28.3,20.2,26.1,20.3,15.0,82,73,46,30.57,30.26,5,0,6,0.00
2013-11-27,52.4,32.2,20.4,26.9,19.9,14.6,82,64,30,30.35,30.19,8,1,13,0.00
2013-11-28,40.9,25.6,15.4,24.8,18.0,10.6,82,74,51,30.35,30.22,5,0,6,0.00
2013-11-29,57.9,33.6,19.7,28.6,19.1,14.6,84,61,18,30.28,30.17,7,1,11,0.01
2013-11-30,52.2,36.1,24.1,27.8,23.0,17.3,78,61,33,30.28,30.18,6,1,7,0.00
2013-12-1,53.3,40.4,29.1,31.4,25.3,21.8,84,58,30,30.18,29.73,8,1,13,0.00
2013-12-2,49.9,38.8,22.8,33.5,30.1,18.4,87,72,39,29.75,29.50,13,3,20,0.02
2013-12-3,22.1,12.4,5.3,17.7,6.7,-0.9,84,77,74,30.38,29.76,4,0,9,0.00
2013-12-4,5.0,1.1,-8.5,-1.2,-5.6,-14.5,84,73,66,30.62,30.37,6,1,9,0.00
2013-12-5,3.7,-9.1,-17.3,-5.1,-16.2,-23.9,77,71,61,30.80,30.61,2,0,3,0.00
2013-12-6,-2.1,-13.6,-21.2,-9.8,-20.6,-28.2,84,70,63,31.00,30.80,3,0,4,0.00
2013-12-7,-8.3,-14.4,-24.3,-16.3,-21.4,-31.2,84,70,66,30.98,30.57,2,0,2,0.00
2013-12-8,9.8,-1.6,-17.8,2.1,-9.8,-24.4,76,68,52,30.57,30.47,5,1,11,0.00
2013-12-9,27.3,9.1,-9.7,15.9,0.1,-16.3,75,67,59,30.55,30.24,13,1,22,0.00
2013-12-10,29.9,20.2,12.9,21.1,13.3,4.6,82,74,61,30.55,30.15,16,2,24,0.00
2013-12-11,19.7,6.2,-6.2,10.2,-0.2,-12.1,84,75,62,30.60,30.49,5,0,5,0.00
2013-12-12,29.6,14.6,1.4,14.8,7.0,-4.4,81,72,53,30.56,30.21,4,0,6,0.13
2013-12-13,35.7,27.1,9.7,29.9,20.6,4.2,83,77,57,30.37,30.17,13,1,18,0.16
2013-12-14,39.4,29.6,22.6,25.5,20.6,15.0,79,69,51,30.36,30.19,7,1,11,0.15
2013-12-15,49.9,41.9,29.2,25.5,21.3,18.0,68,46,28,30.19,30.02,12,2,18,0.02
2013-12-16,46.8,35.5,25.5,24.7,20.8,15.5,74,56,32,30.36,30.03,7,1,14,0.00
2013-12-17,58.8,34.5,16.0,27.2,20.1,11.2,83,59,18,30.39,29.93,9,1,19,0.00
2013-12-18,55.2,39.8,25.7,27.1,23.2,15.6,82,54,21,29.92,29.74,8,1,15,0.00
2013-12-19,28.0,10.9,-1.9,24.1,5.1,-7.6,85,77,67,30.34,29.81,17,4,21,0.00
2013-12-20,23.9,9.1,-4.0,11.9,1.9,-9.9,78,72,56,30.30,29.89,4,0,8,0.00
2013-12-21,28.6,21.6,14.6,22.0,15.1,9.3,83,76,60,30.22,29.86,11,1,13,0.00
2013-12-22,21.5,14.2,-5.3,17.0,8.8,-11.2,84,79,73,30.59,30.19,8,1,13,0.00
2013-12-23,47.6,11.2,-9.3,31.1,4.7,-15.3,81,75,43,30.61,30.15,16,1,21,0.00
2013-12-24,50.3,33.6,21.5,31.0,22.2,13.3,84,64,33,30.44,30.08,22,4,31,0.17
2013-12-25,37.2,26.2,15.7,19.4,12.8,6.9,74,58,32,30.52,30.25,9,2,13,0.00
2013-12-26,49.8,35.8,22.5,28.0,22.0,13.2,75,58,40,30.38,30.17,7,1,10,0.00
2013-12-27,52.6,34.9,23.8,29.8,24.5,18.0,84,67,40,30.25,29.93,6,1,8,0.00
2013-12-28,42.0,19.1,4.2,27.2,11.7,-1.4,81,73,52,30.62,29.91,20,3,26,0.00
2013-12-29,39.4,18.6,6.5,23.7,10.6,1.3,80,71,52,30.59,30.19,13,1,19,0.00
2013-12-30,39.5,32.7,21.7,25.7,22.0,15.7,79,65,50,30.36,30.01,14,2,20,0.00
2013-12-31,45.5,37.6,24.8,31.7,26.3,17.5,86,65,42,30.15,29.95,7,1,15,0.08
2014-1-1,32.5,25.2,9.2,28.2,20.2,4.0,87,81,73,30.43,30.11,5,0,6,0.13
2014-1-2,36.7,18.7,6.9,25.3,11.9,1.8,81,75,61,30.43,30.03,6,1,8,0.05